createdAt,value
2023-10-05T00:00:42.920Z,3.43
2023-10-05T00:03:09.460Z,3.50
2023-10-05T00:05:36.015Z,3.00
2023-10-05T00:08:02.918Z,3.13
2023-10-05T00:10:30.981Z,2.80
2023-10-05T00:12:57.689Z,3.03
2023-10-05T00:15:24.207Z,3.00
2023-10-05T00:17:50.821Z,3.33
2023-10-05T00:20:17.332Z,3.20
2023-10-05T00:22:44.053Z,3.78
2023-10-05T00:25:10.605Z,3.43
2023-10-05T00:27:38.499Z,3.42
2023-10-05T00:30:06.125Z,3.50
2023-10-05T00:32:32.685Z,3.28
2023-10-05T00:34:59.185Z,3.45
2023-10-05T00:37:25.769Z,3.37
2023-10-05T00:39:52.241Z,3.05
2023-10-05T00:42:18.770Z,3.58
2023-10-05T00:44:46.804Z,3.10
2023-10-05T00:47:13.327Z,3.50
2023-10-05T00:49:41.133Z,2.77
2023-10-05T00:52:07.814Z,3.63
2023-10-05T00:54:35.586Z,3.30
2023-10-05T00:57:02.275Z,3.45
2023-10-05T00:59:29.572Z,3.10
2023-10-05T01:01:57.615Z,3.33
2023-10-05T01:04:25.080Z,3.60
2023-10-05T01:06:51.952Z,2.88
2023-10-05T01:09:18.494Z,2.85
2023-10-05T01:11:45.368Z,3.63
2023-10-05T01:14:12.148Z,2.93
2023-10-05T01:16:39.020Z,2.70
2023-10-05T01:19:07.342Z,2.83
2023-10-05T01:21:34.080Z,3.33
2023-10-05T01:24:01.849Z,3.55
2023-10-05T01:26:28.597Z,3.13
2023-10-05T01:28:55.097Z,3.30
2023-10-05T01:31:21.614Z,3.70
2023-10-05T01:33:48.298Z,3.00
2023-10-05T01:36:15.093Z,3.05
2023-10-05T01:38:41.609Z,3.57
2023-10-05T01:41:09.740Z,3.45
2023-10-05T01:43:36.758Z,3.20
2023-10-05T01:46:03.394Z,3.58
2023-10-05T01:48:29.942Z,3.63
2023-10-05T01:50:57.764Z,3.70
2023-10-05T01:53:24.474Z,3.95
2023-10-05T01:55:51.198Z,3.72
2023-10-05T01:58:19.033Z,4.03
2023-10-05T02:00:45.536Z,4.20
2023-10-05T02:03:12.277Z,3.23
2023-10-05T02:05:39.125Z,3.15
2023-10-05T02:08:07.400Z,3.10
2023-10-05T02:10:33.979Z,3.45
2023-10-05T02:13:00.491Z,3.42
2023-10-05T02:15:28.648Z,3.10
2023-10-05T02:17:56.045Z,3.30
2023-10-05T02:20:22.601Z,3.78
2023-10-05T02:22:49.082Z,3.70
2023-10-05T02:25:15.655Z,3.63
2023-10-05T02:27:42.199Z,3.00
2023-10-05T02:30:09.956Z,3.72
2023-10-05T02:32:37.723Z,2.95
2023-10-05T02:35:04.833Z,3.25
2023-10-05T02:37:31.391Z,3.90
2023-10-05T02:39:57.948Z,3.83
2023-10-05T02:42:24.503Z,3.38
2023-10-05T02:44:50.936Z,3.67
2023-10-05T02:47:17.556Z,3.60
2023-10-05T02:49:45.416Z,3.85
2023-10-05T02:52:12.713Z,3.70
2023-10-05T02:54:39.313Z,3.60
2023-10-05T02:57:08.163Z,3.70
2023-10-05T02:59:34.749Z,3.38
2023-10-05T03:02:01.424Z,3.40
2023-10-05T03:04:28.105Z,3.50
2023-10-05T03:06:56.068Z,3.38
2023-10-05T03:09:22.540Z,3.20
2023-10-05T03:11:49.502Z,3.78
2023-10-05T03:14:16.042Z,3.88
2023-10-05T03:16:43.068Z,4.00
2023-10-05T03:19:09.596Z,3.83
2023-10-05T03:21:36.275Z,3.35
2023-10-05T03:24:04.842Z,3.70
2023-10-05T03:26:31.354Z,3.70
2023-10-05T03:28:59.666Z,4.00
2023-10-05T03:31:26.189Z,3.50
2023-10-05T03:33:53.106Z,3.60
2023-10-05T03:36:19.858Z,3.67
2023-10-05T03:38:46.393Z,3.70
2023-10-05T03:41:14.414Z,3.50
2023-10-05T03:43:40.838Z,3.40
2023-10-05T03:46:07.912Z,3.90
2023-10-05T03:48:34.729Z,4.20
2023-10-05T03:51:01.383Z,3.55
2023-10-05T03:53:27.911Z,3.40
2023-10-05T03:55:54.328Z,3.80
2023-10-05T03:58:22.586Z,3.40
2023-10-05T04:00:49.155Z,2.97
2023-10-05T04:03:15.683Z,3.47
2023-10-05T04:05:42.243Z,4.83
2023-10-05T04:08:09.384Z,3.70
2023-10-05T04:10:36.436Z,3.53
2023-10-05T04:13:02.973Z,4.18
2023-10-05T04:15:30.818Z,3.42
2023-10-05T04:17:57.590Z,3.30
2023-10-05T04:20:24.372Z,3.70
2023-10-05T04:22:51.048Z,3.97
2023-10-05T04:25:18.005Z,3.58
2023-10-05T04:27:45.380Z,3.15
2023-10-05T04:30:13.161Z,3.63
2023-10-05T04:32:41.171Z,3.50
2023-10-05T04:35:09.505Z,3.15
2023-10-05T04:37:35.960Z,3.20
2023-10-05T04:40:02.586Z,3.58
2023-10-05T04:42:29.375Z,3.20
2023-10-05T04:44:55.968Z,3.20
2023-10-05T04:47:23.340Z,3.70
2023-10-05T04:49:51.395Z,3.58
2023-10-05T04:52:17.980Z,3.47
2023-10-05T04:54:44.581Z,3.40
2023-10-05T04:57:11.152Z,2.95
2023-10-05T04:59:37.663Z,3.97
2023-10-05T05:02:07.024Z,3.20
2023-10-05T05:04:33.596Z,3.95
2023-10-05T05:07:03.668Z,3.47
2023-10-05T05:09:31.211Z,3.63
2023-10-05T05:11:57.990Z,3.25
2023-10-05T05:14:24.591Z,3.03
2023-10-05T05:16:51.268Z,3.50
2023-10-05T05:19:18.213Z,4.07
2023-10-05T05:21:44.915Z,2.97
2023-10-05T05:24:15.895Z,3.50
2023-10-05T05:26:42.871Z,3.10
2023-10-05T05:29:09.310Z,3.50
2023-10-05T05:31:36.044Z,3.77
2023-10-05T05:34:02.557Z,3.80
2023-10-05T05:36:29.154Z,3.13
2023-10-05T05:38:55.664Z,3.40
2023-10-05T05:41:23.444Z,3.20
2023-10-05T05:43:49.893Z,3.20
2023-10-05T05:46:16.418Z,3.30
2023-10-05T05:48:43.702Z,3.42
2023-10-05T05:51:10.351Z,3.28
2023-10-05T05:53:37.384Z,3.20
2023-10-05T05:56:04.193Z,3.20
2023-10-05T05:58:32.062Z,3.30
2023-10-05T06:00:58.604Z,3.08
2023-10-05T06:03:25.614Z,3.80
2023-10-05T06:05:55.205Z,3.15
2023-10-05T06:08:21.766Z,2.87
2023-10-05T06:10:48.300Z,2.92
2023-10-05T06:13:15.624Z,3.38
2023-10-05T06:15:43.571Z,3.20
2023-10-05T06:18:10.102Z,3.05
2023-10-05T06:20:37.048Z,3.40
2023-10-05T06:23:03.774Z,2.92
2023-10-05T06:25:30.709Z,3.30
2023-10-05T06:27:57.509Z,3.28
2023-10-05T06:30:24.430Z,3.03
2023-10-05T06:32:52.399Z,3.00
2023-10-05T06:35:19.675Z,3.40
2023-10-05T06:37:49.339Z,3.08
2023-10-05T06:40:19.242Z,3.20
2023-10-05T06:42:45.777Z,3.30
2023-10-05T06:45:13.673Z,3.30
2023-10-05T06:47:40.425Z,3.33
2023-10-05T06:50:10.270Z,3.25
2023-10-05T06:52:37.692Z,3.13
2023-10-05T06:55:04.846Z,3.35
2023-10-05T06:57:31.347Z,3.00
2023-10-05T07:00:00.717Z,3.10
2023-10-05T07:02:27.261Z,2.80
2023-10-05T07:04:54.061Z,3.30
2023-10-05T07:07:22.083Z,3.08
2023-10-05T07:09:48.550Z,3.10
2023-10-05T07:12:15.107Z,3.20
2023-10-05T07:14:42.644Z,2.88
2023-10-05T07:17:09.096Z,3.28
2023-10-05T07:19:35.572Z,2.90
2023-10-05T07:22:02.080Z,2.67
2023-10-05T07:24:30.010Z,3.20
2023-10-05T07:26:56.632Z,2.88
2023-10-05T07:29:30.947Z,3.10
2023-10-05T07:31:58.342Z,2.58
2023-10-05T07:34:24.887Z,3.03
2023-10-05T07:36:51.457Z,3.00
2023-10-05T07:39:18.022Z,2.80
2023-10-05T07:41:46.123Z,2.75
2023-10-05T07:44:12.630Z,2.80
2023-10-05T07:46:39.182Z,2.90
2023-10-05T07:49:05.872Z,2.55
2023-10-05T07:51:32.352Z,2.78
2023-10-05T07:53:58.800Z,3.05
2023-10-05T07:56:25.501Z,2.78
2023-10-05T07:58:53.304Z,2.80
2023-10-05T08:01:19.859Z,3.30
2023-10-05T08:03:46.524Z,2.78
2023-10-05T08:06:13.175Z,2.70
2023-10-05T08:08:39.619Z,3.03
2023-10-05T08:11:06.115Z,2.60
2023-10-05T08:13:32.800Z,2.65
2023-10-05T08:16:00.709Z,3.42
2023-10-05T08:18:27.672Z,2.42
2023-10-05T08:20:54.119Z,2.58
2023-10-05T08:23:20.744Z,3.27
2023-10-05T08:25:47.239Z,2.88
2023-10-05T08:28:13.768Z,2.78
2023-10-05T08:30:40.453Z,2.78
2023-10-05T08:33:08.518Z,2.95
2023-10-05T08:35:34.971Z,2.80
2023-10-05T08:38:01.471Z,2.92
2023-10-05T08:40:27.970Z,3.25
2023-10-05T08:42:56.611Z,2.70
2023-10-05T08:45:24.382Z,2.60
2023-10-05T08:47:52.251Z,2.40
2023-10-05T08:50:20.145Z,2.50
2023-10-05T08:52:47.094Z,2.72
2023-10-05T08:55:15.929Z,2.65
2023-10-05T08:57:42.398Z,2.45
2023-10-05T09:00:09.832Z,2.73
2023-10-05T09:02:36.417Z,3.13
2023-10-05T09:05:02.953Z,2.78
2023-10-05T09:07:32.269Z,2.97
2023-10-05T09:09:58.911Z,2.95
2023-10-05T09:12:26.617Z,2.80
2023-10-05T09:15:04.671Z,2.65
2023-10-05T09:17:31.179Z,3.15
2023-10-05T09:19:57.840Z,4.38
2023-10-05T09:22:24.496Z,3.00
2023-10-05T09:24:55.596Z,3.43
2023-10-05T09:27:22.065Z,2.75
2023-10-05T09:29:49.091Z,2.80
2023-10-05T09:32:23.733Z,2.72
2023-10-05T09:34:50.456Z,2.88
2023-10-05T09:37:20.265Z,3.03
2023-10-05T09:39:47.147Z,2.60
2023-10-05T09:42:17.735Z,2.30
2023-10-05T09:44:54.692Z,2.80
2023-10-05T09:47:24.120Z,3.13
2023-10-05T09:49:51.479Z,2.43
2023-10-05T09:52:19.072Z,2.70
2023-10-05T09:54:46.518Z,2.40
2023-10-05T09:57:13.207Z,2.20
2023-10-05T09:59:41.075Z,2.17
2023-10-05T10:02:11.572Z,2.70
2023-10-05T10:04:38.618Z,2.35
2023-10-05T10:07:09.124Z,2.40
2023-10-05T10:09:35.795Z,2.42
2023-10-05T10:12:02.335Z,2.55
2023-10-05T10:14:29.769Z,2.60
2023-10-05T10:16:57.587Z,2.30
2023-10-05T10:19:26.157Z,2.22
2023-10-05T10:21:54.683Z,2.67
2023-10-05T10:24:21.179Z,2.80
2023-10-05T10:26:50.628Z,2.70
2023-10-05T10:29:17.586Z,2.83
2023-10-05T10:31:45.515Z,2.55
2023-10-05T10:34:20.210Z,2.33
2023-10-05T10:36:49.262Z,2.50
2023-10-05T10:39:16.018Z,2.67
2023-10-05T10:41:57.604Z,2.38
2023-10-05T10:44:24.071Z,2.60
2023-10-05T10:46:50.593Z,2.00
2023-10-05T10:49:18.864Z,2.22
2023-10-05T10:51:46.208Z,2.40
2023-10-05T10:54:19.200Z,2.20
2023-10-05T10:56:45.732Z,2.20
2023-10-05T10:59:12.321Z,2.42
2023-10-05T11:01:42.220Z,2.47
2023-10-05T11:04:12.100Z,2.20
2023-10-05T11:06:41.763Z,2.28
2023-10-05T11:09:08.587Z,2.33
2023-10-05T11:11:37.857Z,2.70
2023-10-05T11:14:04.575Z,2.70
2023-10-05T11:16:34.098Z,2.40
2023-10-05T11:19:00.625Z,2.85
2023-10-05T11:21:27.336Z,2.35
2023-10-05T11:24:02.757Z,2.35
2023-10-05T11:26:37.634Z,2.70
2023-10-05T11:29:15.633Z,2.37
2023-10-05T11:31:52.291Z,2.25
2023-10-05T11:35:16.331Z,2.70
2023-10-05T11:37:16.953Z,2.70
2023-10-05T11:39:46.808Z,2.47
2023-10-05T11:42:13.382Z,2.30
2023-10-05T11:44:40.907Z,2.63
2023-10-05T11:47:07.475Z,2.63
2023-10-05T11:49:34.440Z,2.67
2023-10-05T11:52:01.181Z,2.30
2023-10-05T11:54:28.787Z,2.43
2023-10-05T11:56:56.710Z,2.63
2023-10-05T11:59:26.613Z,2.60
2023-10-05T12:01:53.414Z,2.53
2023-10-05T12:04:20.326Z,2.30
2023-10-05T12:06:46.987Z,2.57
2023-10-05T12:09:13.521Z,2.72
2023-10-05T12:11:40.115Z,2.40
2023-10-05T12:14:08.263Z,2.30
2023-10-05T12:16:34.998Z,2.72
2023-10-05T12:19:02.039Z,2.27
2023-10-05T12:21:28.617Z,2.28
2023-10-05T12:23:55.119Z,2.45
2023-10-05T12:26:21.693Z,2.38
2023-10-05T12:28:48.129Z,2.30
2023-10-05T12:31:16.572Z,2.30
2023-10-05T12:33:43.345Z,2.33
2023-10-05T12:36:09.892Z,2.40
2023-10-05T12:38:36.749Z,2.15
2023-10-05T12:41:03.480Z,2.70
2023-10-05T12:43:29.998Z,2.23
2023-10-05T12:45:56.619Z,2.40
2023-10-05T12:48:24.481Z,2.25
2023-10-05T12:50:50.986Z,2.40
2023-10-05T12:53:17.625Z,2.20
2023-10-05T12:55:44.145Z,2.90
2023-10-05T12:58:11.089Z,2.50
2023-10-05T13:00:37.811Z,2.72
2023-10-05T13:03:04.486Z,2.70
2023-10-05T13:05:35.870Z,2.33
2023-10-05T13:08:03.578Z,2.37
2023-10-05T13:10:30.440Z,2.25
2023-10-05T13:12:57.541Z,2.30
2023-10-05T13:15:24.187Z,2.40
2023-10-05T13:17:50.977Z,2.30
2023-10-05T13:20:17.631Z,2.13
2023-10-05T13:22:45.578Z,2.47
2023-10-05T13:25:14.872Z,2.25
2023-10-05T13:27:41.448Z,2.30
2023-10-05T13:30:08.971Z,2.10
2023-10-05T13:32:35.521Z,2.20
2023-10-05T13:35:02.744Z,2.45
2023-10-05T13:37:29.440Z,2.13
2023-10-05T13:39:57.239Z,2.45
2023-10-05T13:42:23.732Z,2.60
2023-10-05T13:44:50.432Z,2.30
2023-10-05T13:47:17.265Z,2.40
2023-10-05T13:49:43.897Z,2.67
2023-10-05T13:52:10.372Z,2.33
2023-10-05T13:54:36.905Z,2.60
2023-10-05T13:57:04.685Z,2.10
2023-10-05T13:59:31.156Z,2.33
2023-10-05T14:01:57.598Z,2.50
2023-10-05T14:04:24.109Z,2.65
2023-10-05T14:06:50.619Z,1.95
2023-10-05T14:09:17.120Z,2.23
2023-10-05T14:11:43.853Z,2.20
2023-10-05T14:14:12.527Z,2.20
2023-10-05T14:16:39.512Z,2.00
2023-10-05T14:19:06.402Z,2.40
2023-10-05T14:21:33.216Z,2.20
2023-10-05T14:23:59.690Z,4.65
2023-10-05T14:26:26.263Z,4.60
2023-10-05T14:28:53.181Z,2.38
2023-10-05T14:31:23.779Z,2.67
2023-10-05T14:33:50.641Z,2.50
2023-10-05T14:36:17.199Z,2.75
2023-10-05T14:38:43.642Z,2.25
2023-10-05T14:41:10.144Z,2.42
2023-10-05T14:43:36.740Z,2.45
2023-10-05T14:46:03.372Z,2.23
2023-10-05T14:48:31.304Z,2.33
2023-10-05T14:50:59.800Z,2.50
2023-10-05T14:53:26.574Z,2.70
2023-10-05T14:55:53.133Z,2.60
2023-10-05T14:58:20.579Z,2.53
2023-10-05T15:00:47.163Z,2.85
2023-10-05T15:03:13.807Z,2.42
2023-10-05T15:05:41.860Z,2.45
2023-10-05T15:08:08.433Z,3.70
2023-10-05T15:10:35.235Z,2.40
2023-10-05T15:13:01.851Z,2.45
2023-10-05T15:15:28.309Z,2.47
2023-10-05T15:17:54.787Z,2.55
2023-10-05T15:20:21.356Z,2.72
2023-10-05T15:22:50.298Z,2.70
2023-10-05T15:25:16.901Z,2.50
2023-10-05T15:27:43.355Z,2.40
2023-10-05T15:30:11.203Z,2.67
2023-10-05T15:32:38.065Z,2.70
2023-10-05T15:35:06.726Z,2.87
2023-10-05T15:37:33.259Z,2.15
2023-10-05T15:40:01.354Z,3.03
2023-10-05T15:42:27.836Z,2.33
2023-10-05T15:44:54.351Z,2.65
2023-10-05T15:47:20.848Z,2.20
2023-10-05T15:49:47.415Z,2.20
2023-10-05T15:52:14.355Z,2.28
2023-10-05T15:54:40.882Z,2.22
2023-10-05T15:57:09.094Z,2.10
2023-10-05T15:59:35.674Z,2.30
2023-10-05T16:02:02.363Z,2.55
2023-10-05T16:04:29.163Z,2.17
2023-10-05T16:07:05.419Z,2.17
2023-10-05T16:09:31.872Z,2.33
2023-10-05T16:11:58.391Z,2.17
2023-10-05T16:14:27.954Z,2.00
2023-10-05T16:16:54.749Z,3.65
2023-10-05T16:19:21.514Z,2.30
2023-10-05T16:21:48.257Z,2.05
2023-10-05T16:24:14.710Z,2.07
2023-10-05T16:26:41.195Z,2.17
2023-10-05T16:29:07.896Z,2.42
2023-10-05T16:31:36.057Z,2.20
2023-10-05T16:34:02.920Z,2.40
2023-10-05T16:36:29.422Z,2.30
2023-10-05T16:38:55.900Z,2.20
2023-10-05T16:41:22.486Z,2.78
2023-10-05T16:43:49.127Z,2.70
2023-10-05T16:46:15.731Z,2.20
2023-10-05T16:48:43.755Z,2.20
2023-10-05T16:51:10.309Z,3.00
2023-10-05T16:53:36.817Z,2.80
2023-10-05T16:56:03.780Z,2.50
2023-10-05T16:58:30.461Z,2.45
2023-10-05T17:00:56.989Z,2.60
2023-10-05T17:03:23.571Z,2.10
2023-10-05T17:05:51.593Z,2.70
2023-10-05T17:08:18.061Z,2.70
2023-10-05T17:10:44.513Z,2.78
2023-10-05T17:13:11.003Z,2.57
2023-10-05T17:15:37.539Z,2.47
2023-10-05T17:18:04.584Z,2.47
2023-10-05T17:20:31.030Z,2.90
2023-10-05T17:23:02.608Z,2.38
2023-10-05T17:25:29.164Z,2.80
2023-10-05T17:27:55.912Z,2.50
2023-10-05T17:30:22.641Z,2.88
2023-10-05T17:32:49.213Z,3.90
2023-10-05T17:35:15.882Z,3.58
2023-10-05T17:37:42.678Z,2.80
2023-10-05T17:40:13.015Z,2.80
2023-10-05T17:42:39.533Z,2.92
2023-10-05T17:45:07.199Z,2.60
2023-10-05T17:47:35.185Z,2.85
2023-10-05T17:50:01.821Z,2.30
2023-10-05T17:52:28.373Z,2.72
2023-10-05T17:54:55.062Z,2.05
2023-10-05T17:57:22.854Z,2.60
2023-10-05T17:59:49.347Z,2.30
2023-10-05T18:02:16.312Z,2.90
2023-10-05T18:04:42.973Z,2.80
2023-10-05T18:07:09.560Z,2.30
2023-10-05T18:09:36.469Z,2.45
2023-10-05T18:12:03.711Z,2.20
2023-10-05T18:14:31.960Z,2.10
2023-10-05T18:16:58.800Z,2.15
2023-10-05T18:19:25.738Z,2.42
2023-10-05T18:21:52.329Z,2.10
2023-10-05T18:24:18.823Z,1.90
2023-10-05T18:26:45.367Z,2.00
2023-10-05T18:29:12.110Z,2.20
2023-10-05T18:31:40.206Z,2.15
2023-10-05T18:34:06.798Z,2.00
2023-10-05T18:36:33.320Z,2.05
2023-10-05T18:38:59.849Z,1.83
2023-10-05T18:41:26.305Z,2.33
2023-10-05T18:43:54.016Z,1.98
2023-10-05T18:46:20.584Z,2.00
2023-10-05T18:48:48.458Z,2.25
2023-10-05T18:51:15.095Z,2.10
2023-10-05T18:53:41.656Z,2.22
2023-10-05T18:56:08.643Z,2.45
2023-10-05T18:58:36.965Z,2.22
2023-10-05T19:01:04.002Z,2.28
2023-10-05T19:03:30.796Z,1.80
2023-10-05T19:05:58.649Z,1.98
2023-10-05T19:08:25.886Z,1.90
2023-10-05T19:10:52.723Z,2.13
2023-10-05T19:13:19.222Z,2.00
2023-10-05T19:15:45.687Z,1.80
2023-10-05T19:18:12.322Z,1.67
2023-10-05T19:20:39.184Z,1.77
2023-10-05T19:23:07.493Z,1.65
2023-10-05T19:25:34.306Z,2.38
2023-10-05T19:28:01.212Z,1.83
2023-10-05T19:30:27.673Z,2.15
2023-10-05T19:32:54.332Z,2.08
2023-10-05T19:35:21.428Z,2.20
2023-10-05T19:37:47.986Z,2.20
2023-10-05T19:40:15.962Z,2.10
2023-10-05T19:42:42.426Z,2.13
2023-10-05T19:45:11.253Z,2.85
2023-10-05T19:47:37.974Z,1.92
2023-10-05T19:52:53.232Z,2.50
2023-10-05T19:55:21.323Z,2.20
2023-10-05T19:57:47.838Z,2.60
2023-10-05T20:00:14.648Z,2.20
2023-10-05T20:02:41.612Z,2.60
2023-10-05T20:05:08.661Z,1.90
2023-10-05T20:07:35.190Z,2.05
2023-10-05T20:10:01.964Z,2.25
2023-10-05T20:12:29.819Z,1.67
2023-10-05T20:14:56.356Z,2.20
2023-10-05T20:17:22.937Z,2.10
2023-10-05T20:19:52.847Z,2.15
2023-10-05T20:22:19.322Z,2.10
2023-10-05T20:24:47.305Z,2.40
2023-10-05T20:27:14.974Z,2.05
2023-10-05T20:29:43.030Z,2.10
2023-10-05T20:32:09.515Z,2.40
2023-10-05T20:34:36.361Z,2.45
2023-10-05T20:37:02.965Z,1.80
2023-10-05T20:39:31.385Z,2.03
2023-10-05T20:41:58.094Z,2.03
2023-10-05T20:44:24.709Z,2.13
2023-10-05T20:46:52.716Z,1.73
2023-10-05T20:49:19.380Z,1.90
2023-10-05T20:51:46.156Z,2.00
2023-10-05T20:54:12.702Z,1.87
2023-10-05T20:56:39.294Z,2.00
2023-10-05T20:59:05.861Z,1.98
2023-10-05T21:01:32.409Z,2.30
2023-10-05T21:04:00.278Z,2.20
2023-10-05T21:06:26.794Z,2.50
2023-10-05T21:08:53.427Z,2.42
2023-10-05T21:11:22.865Z,2.30
2023-10-05T21:13:49.357Z,2.40
2023-10-05T21:16:17.595Z,2.03
2023-10-05T21:18:44.056Z,2.10
2023-10-05T21:21:11.841Z,2.00
2023-10-05T21:23:38.390Z,2.10
2023-10-05T21:26:04.921Z,2.10
2023-10-05T21:28:31.421Z,2.08
2023-10-05T21:30:57.969Z,2.20
2023-10-05T21:33:24.445Z,1.83
2023-10-05T21:35:51.289Z,2.03
2023-10-05T21:38:19.298Z,2.47
2023-10-05T21:40:45.821Z,2.22
2023-10-05T21:43:12.370Z,2.67
2023-10-05T21:45:39.013Z,2.70
2023-10-05T21:48:06.203Z,2.30
2023-10-05T21:50:33.024Z,1.98
2023-10-05T21:52:59.624Z,2.40
2023-10-05T21:55:27.813Z,2.20
2023-10-05T21:57:54.310Z,2.30
2023-10-05T22:00:21.185Z,2.10
2023-10-05T22:02:47.843Z,2.47
2023-10-05T22:05:14.460Z,2.38
2023-10-05T22:07:41.081Z,2.03
2023-10-05T22:10:08.920Z,2.40
2023-10-05T22:12:36.955Z,2.13
2023-10-05T22:15:03.955Z,2.55
2023-10-05T22:17:30.624Z,2.40
2023-10-05T22:19:57.409Z,2.30
2023-10-05T22:22:23.966Z,2.20
2023-10-05T22:24:50.552Z,2.30
2023-10-05T22:27:17.031Z,2.25
2023-10-05T22:29:44.783Z,2.50
2023-10-05T22:32:11.249Z,2.53
2023-10-05T22:34:37.693Z,2.70
2023-10-05T22:37:04.158Z,2.20
2023-10-05T22:39:30.589Z,2.45
2023-10-05T22:41:57.099Z,2.30
2023-10-05T22:44:23.552Z,2.70
2023-10-05T22:46:54.949Z,2.70
2023-10-05T22:49:21.542Z,2.47
2023-10-05T22:51:48.046Z,2.90
2023-10-05T22:54:15.413Z,2.35
2023-10-05T22:56:45.118Z,2.47
2023-10-05T22:59:11.894Z,2.67
2023-10-05T23:01:38.888Z,3.00
2023-10-05T23:04:07.090Z,2.67
2023-10-05T23:06:33.936Z,2.53
2023-10-05T23:09:00.426Z,2.40
2023-10-05T23:11:26.938Z,2.60
2023-10-05T23:13:53.437Z,3.08
2023-10-05T23:16:19.944Z,2.85
2023-10-05T23:18:46.453Z,2.80
2023-10-05T23:21:14.496Z,2.30
2023-10-05T23:23:40.933Z,2.53
2023-10-05T23:26:07.415Z,2.88
2023-10-05T23:28:34.015Z,2.63
2023-10-05T23:31:00.480Z,2.40
2023-10-05T23:33:27.069Z,2.33
2023-10-05T23:35:53.753Z,2.67
2023-10-05T23:38:21.824Z,2.38
2023-10-05T23:40:48.308Z,2.85
2023-10-05T23:43:14.850Z,2.40
2023-10-05T23:45:41.451Z,2.40
2023-10-05T23:48:07.912Z,2.40
2023-10-05T23:50:34.360Z,2.40
2023-10-05T23:53:00.936Z,2.22
2023-10-05T23:55:28.921Z,2.30
2023-10-05T23:57:55.884Z,2.77
